Aeroporto :
LOGIN :

Iscrizione | Disclaimer

   EN    FR    IT 

 










Sommario :    VFR   VFR Marginale   IFR   IFR Intensivo   IFR Molto Intensivo
Visibilità : 
Base nubi : 
>= 8 km
>= 3000ft
5 / 8 km
1000 / 3000 ft
1500m / 5 km
500 / 1000 ft
800 / 1500m
200 / 500 ft
< 800m
< 200 ft
Simboli :   Temporali  Nebbia  Neve Forte  Precipitazioni Forti  Vento > 20 kt
SIGMETs :   Varie  Temporali  Ghiacco  Turbolenza  Onda orograficha  Ceneri Vulcaniche






- Altitudine del aeroporto : 1325 ft
- Codice IATA : EBU


LFMH - St-Etienne Boutheon

ULTIMO METAR :
  • 260500Z AUTO 16008KT CAVOK 14/09 Q1017

METARs OBSOLETI :
  • 260430Z AUTO 15006KT CAVOK 12/09 Q1017
  • 260400Z AUTO 16007KT CAVOK 11/09 Q1017
  • 260330Z AUTO 18008KT CAVOK 12/08 Q1017
  • 260300Z AUTO 21006KT CAVOK 15/08 Q1017
  • 260230Z AUTO 18005KT CAVOK 14/08 Q1016
  • 260200Z AUTO 16005KT CAVOK 14/08 Q1016
  • 260130Z AUTO 17004KT CAVOK 15/09 Q1017
  • 260100Z AUTO 16005KT CAVOK 15/09 Q1017
  • 260030Z AUTO 15003KT CAVOK 15/10 Q1017

Previsioni scadute.
ATIS : +33 4 77 36 17 51



MetMap, La meteo Aeronautica in un colpo d'occhio ! - Copyright ORBIFLY Dicembre 2007 - Disclaimer

ORBIFLY MET'MAP TEAM :

Programmazione e sviluppo : Alexandra Zaïnal
Concezione : Baudouin d'Aumeries
Supporto tecnico e logistico : Manuel Goepfert
Aiuto : Marc-Olivier Méhu
Aiuto per la traduzione : Arnaldo La Scala




FONTI E CREDITI :

   NOAA